Pagrindinis puslapis
METAR-TAF:

METAR-TAF

Oro uostai :

Kramfors, Švedija

platuma: 63-03N, ilguma: 017-46E, Aukštis: 10 m

Dabartinis oras

Ataskaita buvo paskelbta 14 minutes, ne 10:50 UTC
Vėjas 3 kt nuo kintamojo kryptimis
Temperatūra 17°C
Drėgmė 42%
Slėgis 1020 hPa
Matomumas 10 km arba daugiau

METAR: ESNK 221050Z AUTO VRB03KT 9999 NCD 17/04 Q1020

Laikas: 13:04 (11:04 UTC)


TAF: trūkstamas

Orai ataskaitas ir orų prognozės (METAR, TAF).

turimą stotys yra geltonos ir raudonos taškus žemėlapyje.

Perkelti pele per norėdami pamatyti stoties vardą.

Tada spustelėkite, norėdami matyti oro stebėjimo ir prognozės.

Norėdami pakeisti žemėlapį: spustelėkite ant žalios mygtukų su juodo kryžiaus žemyn,; žalią mygtuką su brūkšneliu, jei norite nutolinti; arba žalių rodyklių gretimoms žemėlapius.


METAR-TAF: